sensor_id;sensor_type;location;lat;lon;timestamp;temperature;humidity
22734;DHT22;11534;51.994;5.692;2023-05-07T00:01:43;15.70;99.90
22734;DHT22;11534;51.994;5.692;2023-05-07T00:04:08;15.70;99.90
22734;DHT22;11534;51.994;5.692;2023-05-07T00:06:34;15.60;99.90
22734;DHT22;11534;51.994;5.692;2023-05-07T00:09:00;15.60;99.90
22734;DHT22;11534;51.994;5.692;2023-05-07T00:11:27;15.60;99.90
22734;DHT22;11534;51.994;5.692;2023-05-07T00:13:53;15.60;99.90
22734;DHT22;11534;51.994;5.692;2023-05-07T00:16:19;15.60;99.90
22734;DHT22;11534;51.994;5.692;2023-05-07T00:18:45;15.60;99.90
22734;DHT22;11534;51.994;5.692;2023-05-07T00:21:11;15.60;99.90
22734;DHT22;11534;51.994;5.692;2023-05-07T00:23:36;15.60;99.90
22734;DHT22;11534;51.994;5.692;2023-05-07T00:26:03;15.60;99.90
22734;DHT22;11534;51.994;5.692;2023-05-07T00:28:28;15.50;99.90
22734;DHT22;11534;51.994;5.692;2023-05-07T00:30:54;15.50;99.90
22734;DHT22;11534;51.994;5.692;2023-05-07T00:33:21;15.50;99.90
22734;DHT22;11534;51.994;5.692;2023-05-07T00:35:48;15.40;99.90
22734;DHT22;11534;51.994;5.692;2023-05-07T00:38:14;15.40;99.90
22734;DHT22;11534;51.994;5.692;2023-05-07T00:40:40;15.40;99.90
22734;DHT22;11534;51.994;5.692;2023-05-07T00:43:06;15.30;99.90
22734;DHT22;11534;51.994;5.692;2023-05-07T00:45:32;15.30;99.90
22734;DHT22;11534;51.994;5.692;2023-05-07T00:48:00;15.20;99.90
22734;DHT22;11534;51.994;5.692;2023-05-07T00:50:28;15.20;99.90
22734;DHT22;11534;51.994;5.692;2023-05-07T00:52:55;15.20;99.90
22734;DHT22;11534;51.994;5.692;2023-05-07T00:55:21;15.20;99.90
22734;DHT22;11534;51.994;5.692;2023-05-07T00:57:47;15.10;99.90
22734;DHT22;11534;51.994;5.692;2023-05-07T01:00:13;15.10;99.90
22734;DHT22;11534;51.994;5.692;2023-05-07T01:02:39;15.20;99.90
22734;DHT22;11534;51.994;5.692;2023-05-07T01:05:07;15.10;99.90
22734;DHT22;11534;51.994;5.692;2023-05-07T01:07:33;15.10;99.90
22734;DHT22;11534;51.994;5.692;2023-05-07T01:10:00;15.10;99.90
22734;DHT22;11534;51.994;5.692;2023-05-07T01:12:27;15.10;99.90
22734;DHT22;11534;51.994;5.692;2023-05-07T01:14:54;15.10;99.90
22734;DHT22;11534;51.994;5.692;2023-05-07T01:17:19;15.10;99.90
22734;DHT22;11534;51.994;5.692;2023-05-07T01:19:45;15.10;99.90
22734;DHT22;11534;51.994;5.692;2023-05-07T01:22:14;15.10;99.90
22734;DHT22;11534;51.994;5.692;2023-05-07T01:24:41;15.10;99.90
22734;DHT22;11534;51.994;5.692;2023-05-07T01:27:08;15.10;99.90
22734;DHT22;11534;51.994;5.692;2023-05-07T01:29:33;15.10;99.90
22734;DHT22;11534;51.994;5.692;2023-05-07T01:32:00;15.10;99.90
22734;DHT22;11534;51.994;5.692;2023-05-07T01:34:32;15.10;99.90
22734;DHT22;11534;51.994;5.692;2023-05-07T01:36:58;15.10;99.90
22734;DHT22;11534;51.994;5.692;2023-05-07T01:39:26;15.10;99.90
22734;DHT22;11534;51.994;5.692;2023-05-07T01:41:57;15.10;99.90
22734;DHT22;11534;51.994;5.692;2023-05-07T01:44:24;15.10;99.90
22734;DHT22;11534;51.994;5.692;2023-05-07T01:46:51;15.10;99.90
22734;DHT22;11534;51.994;5.692;2023-05-07T01:49:17;15.10;99.90
22734;DHT22;11534;51.994;5.692;2023-05-07T01:51:43;15.20;99.90
22734;DHT22;11534;51.994;5.692;2023-05-07T01:54:09;15.10;99.90
22734;DHT22;11534;51.994;5.692;2023-05-07T01:56:35;15.10;99.90
22734;DHT22;11534;51.994;5.692;2023-05-07T01:59:01;15.10;99.90
22734;DHT22;11534;51.994;5.692;2023-05-07T02:01:27;15.20;99.90
22734;DHT22;11534;51.994;5.692;2023-05-07T02:03:53;15.10;99.90
22734;DHT22;11534;51.994;5.692;2023-05-07T02:06:19;15.10;99.90
22734;DHT22;11534;51.994;5.692;2023-05-07T02:08:45;15.10;99.90
22734;DHT22;11534;51.994;5.692;2023-05-07T02:11:11;15.10;99.90
22734;DHT22;11534;51.994;5.692;2023-05-07T02:13:37;15.10;99.90
22734;DHT22;11534;51.994;5.692;2023-05-07T02:16:03;15.10;99.90
22734;DHT22;11534;51.994;5.692;2023-05-07T02:18:29;15.10;99.90
22734;DHT22;11534;51.994;5.692;2023-05-07T02:20:55;15.10;99.90
22734;DHT22;11534;51.994;5.692;2023-05-07T02:23:20;15.10;99.90
22734;DHT22;11534;51.994;5.692;2023-05-07T02:25:46;15.00;99.90
22734;DHT22;11534;51.994;5.692;2023-05-07T02:28:12;15.00;99.90
22734;DHT22;11534;51.994;5.692;2023-05-07T02:30:38;15.00;99.90
22734;DHT22;11534;51.994;5.692;2023-05-07T02:33:04;15.00;99.90
22734;DHT22;11534;51.994;5.692;2023-05-07T02:35:30;15.00;99.90
22734;DHT22;11534;51.994;5.692;2023-05-07T02:37:56;15.00;99.90
22734;DHT22;11534;51.994;5.692;2023-05-07T02:40:22;15.00;99.90
22734;DHT22;11534;51.994;5.692;2023-05-07T02:42:47;15.00;99.90
22734;DHT22;11534;51.994;5.692;2023-05-07T02:45:13;15.00;99.90
22734;DHT22;11534;51.994;5.692;2023-05-07T02:47:39;15.00;99.90
22734;DHT22;11534;51.994;5.692;2023-05-07T02:50:06;15.00;99.90
22734;DHT22;11534;51.994;5.692;2023-05-07T02:52:32;14.90;99.90
22734;DHT22;11534;51.994;5.692;2023-05-07T02:54:57;15.00;99.90
22734;DHT22;11534;51.994;5.692;2023-05-07T02:57:23;15.00;99.90
22734;DHT22;11534;51.994;5.692;2023-05-07T02:59:48;14.90;99.90
22734;DHT22;11534;51.994;5.692;2023-05-07T03:02:14;14.90;99.90
22734;DHT22;11534;51.994;5.692;2023-05-07T03:04:40;14.90;99.90
22734;DHT22;11534;51.994;5.692;2023-05-07T03:07:06;14.90;99.90
22734;DHT22;11534;51.994;5.692;2023-05-07T03:09:32;14.90;99.90
22734;DHT22;11534;51.994;5.692;2023-05-07T03:11:57;14.90;99.90
22734;DHT22;11534;51.994;5.692;2023-05-07T03:14:23;14.90;99.90
22734;DHT22;11534;51.994;5.692;2023-05-07T03:16:49;14.90;99.90
22734;DHT22;11534;51.994;5.692;2023-05-07T03:19:15;14.90;99.90
22734;DHT22;11534;51.994;5.692;2023-05-07T03:21:41;14.90;99.90
22734;DHT22;11534;51.994;5.692;2023-05-07T03:24:06;14.90;99.90
22734;DHT22;11534;51.994;5.692;2023-05-07T03:26:32;14.80;99.90
22734;DHT22;11534;51.994;5.692;2023-05-07T03:28:58;14.80;99.90
22734;DHT22;11534;51.994;5.692;2023-05-07T03:31:24;14.80;99.90
22734;DHT22;11534;51.994;5.692;2023-05-07T03:33:55;14.80;99.90
22734;DHT22;11534;51.994;5.692;2023-05-07T03:36:21;14.80;99.90
22734;DHT22;11534;51.994;5.692;2023-05-07T03:38:47;14.80;99.90
22734;DHT22;11534;51.994;5.692;2023-05-07T03:41:13;14.80;99.90
22734;DHT22;11534;51.994;5.692;2023-05-07T03:43:39;14.80;99.90
22734;DHT22;11534;51.994;5.692;2023-05-07T03:46:04;14.80;99.90
22734;DHT22;11534;51.994;5.692;2023-05-07T03:48:30;14.80;99.90
22734;DHT22;11534;51.994;5.692;2023-05-07T03:50:57;14.80;99.90
22734;DHT22;11534;51.994;5.692;2023-05-07T03:53:22;14.80;99.90
22734;DHT22;11534;51.994;5.692;2023-05-07T03:55:49;14.80;99.90
22734;DHT22;11534;51.994;5.692;2023-05-07T03:58:15;14.80;99.90
22734;DHT22;11534;51.994;5.692;2023-05-07T04:00:41;14.80;99.90
22734;DHT22;11534;51.994;5.692;2023-05-07T04:03:07;14.80;99.90
22734;DHT22;11534;51.994;5.692;2023-05-07T04:05:32;14.80;99.90
22734;DHT22;11534;51.994;5.692;2023-05-07T04:07:58;14.80;99.90
22734;DHT22;11534;51.994;5.692;2023-05-07T04:10:24;14.80;99.90
22734;DHT22;11534;51.994;5.692;2023-05-07T04:12:50;14.80;99.90
22734;DHT22;11534;51.994;5.692;2023-05-07T04:15:16;14.80;99.90
22734;DHT22;11534;51.994;5.692;2023-05-07T04:17:42;14.80;99.90
22734;DHT22;11534;51.994;5.692;2023-05-07T04:20:14;14.80;99.90
22734;DHT22;11534;51.994;5.692;2023-05-07T04:22:40;14.80;99.90
22734;DHT22;11534;51.994;5.692;2023-05-07T04:25:06;14.80;99.90
22734;DHT22;11534;51.994;5.692;2023-05-07T04:27:34;14.80;99.90
22734;DHT22;11534;51.994;5.692;2023-05-07T04:30:01;14.80;99.90
22734;DHT22;11534;51.994;5.692;2023-05-07T04:32:28;14.80;99.90
22734;DHT22;11534;51.994;5.692;2023-05-07T04:34:55;14.80;99.90
22734;DHT22;11534;51.994;5.692;2023-05-07T04:37:21;14.80;99.90
22734;DHT22;11534;51.994;5.692;2023-05-07T04:39:46;14.80;99.90
22734;DHT22;11534;51.994;5.692;2023-05-07T04:42:16;14.80;99.90
22734;DHT22;11534;51.994;5.692;2023-05-07T04:44:43;14.80;99.90
22734;DHT22;11534;51.994;5.692;2023-05-07T04:47:09;14.70;99.90
22734;DHT22;11534;51.994;5.692;2023-05-07T04:49:35;14.70;99.90
22734;DHT22;11534;51.994;5.692;2023-05-07T04:52:01;14.70;99.90
22734;DHT22;11534;51.994;5.692;2023-05-07T04:54:26;14.70;99.90
22734;DHT22;11534;51.994;5.692;2023-05-07T04:56:52;14.80;99.90
22734;DHT22;11534;51.994;5.692;2023-05-07T04:59:17;14.80;99.90
22734;DHT22;11534;51.994;5.692;2023-05-07T05:01:43;14.80;99.90
22734;DHT22;11534;51.994;5.692;2023-05-07T05:04:09;14.80;99.90
22734;DHT22;11534;51.994;5.692;2023-05-07T05:06:35;14.80;99.90
22734;DHT22;11534;51.994;5.692;2023-05-07T05:09:01;14.80;99.90
22734;DHT22;11534;51.994;5.692;2023-05-07T05:11:26;14.80;99.90
22734;DHT22;11534;51.994;5.692;2023-05-07T05:13:52;14.80;99.90
22734;DHT22;11534;51.994;5.692;2023-05-07T05:16:18;14.80;99.90
22734;DHT22;11534;51.994;5.692;2023-05-07T05:18:43;14.80;99.90
22734;DHT22;11534;51.994;5.692;2023-05-07T05:21:09;14.80;99.90
22734;DHT22;11534;51.994;5.692;2023-05-07T05:23:36;14.80;99.90
22734;DHT22;11534;51.994;5.692;2023-05-07T05:26:02;14.80;99.90
22734;DHT22;11534;51.994;5.692;2023-05-07T05:28:28;14.80;99.90
22734;DHT22;11534;51.994;5.692;2023-05-07T05:30:54;14.80;99.90
22734;DHT22;11534;51.994;5.692;2023-05-07T05:33:19;14.90;99.90
22734;DHT22;11534;51.994;5.692;2023-05-07T05:35:45;14.90;99.90
22734;DHT22;11534;51.994;5.692;2023-05-07T05:38:11;14.90;99.90
22734;DHT22;11534;51.994;5.692;2023-05-07T05:40:37;14.90;99.90
22734;DHT22;11534;51.994;5.692;2023-05-07T05:43:03;14.90;99.90
22734;DHT22;11534;51.994;5.692;2023-05-07T05:45:29;14.90;99.90
22734;DHT22;11534;51.994;5.692;2023-05-07T05:47:56;15.00;99.90
22734;DHT22;11534;51.994;5.692;2023-05-07T05:50:22;15.00;99.90
22734;DHT22;11534;51.994;5.692;2023-05-07T05:52:47;15.00;99.90
22734;DHT22;11534;51.994;5.692;2023-05-07T05:55:13;15.00;99.90
22734;DHT22;11534;51.994;5.692;2023-05-07T05:57:39;15.00;99.90
22734;DHT22;11534;51.994;5.692;2023-05-07T06:00:06;15.00;99.90
22734;DHT22;11534;51.994;5.692;2023-05-07T06:02:33;15.00;99.90
22734;DHT22;11534;51.994;5.692;2023-05-07T06:04:59;15.00;99.90
22734;DHT22;11534;51.994;5.692;2023-05-07T06:07:25;15.00;99.90
22734;DHT22;11534;51.994;5.692;2023-05-07T06:09:51;15.00;99.90
22734;DHT22;11534;51.994;5.692;2023-05-07T06:12:16;15.00;99.90
22734;DHT22;11534;51.994;5.692;2023-05-07T06:14:45;15.00;99.90
22734;DHT22;11534;51.994;5.692;2023-05-07T06:17:11;15.00;99.90
22734;DHT22;11534;51.994;5.692;2023-05-07T06:19:36;15.10;99.90
22734;DHT22;11534;51.994;5.692;2023-05-07T06:22:02;15.10;99.90
22734;DHT22;11534;51.994;5.692;2023-05-07T06:24:28;15.20;99.90
22734;DHT22;11534;51.994;5.692;2023-05-07T06:26:54;15.20;99.90
22734;DHT22;11534;51.994;5.692;2023-05-07T06:29:20;15.30;99.90
22734;DHT22;11534;51.994;5.692;2023-05-07T06:31:45;15.30;99.90
22734;DHT22;11534;51.994;5.692;2023-05-07T06:34:11;15.40;99.90
22734;DHT22;11534;51.994;5.692;2023-05-07T06:36:40;15.40;99.90
22734;DHT22;11534;51.994;5.692;2023-05-07T06:39:06;15.40;99.90
22734;DHT22;11534;51.994;5.692;2023-05-07T06:41:31;15.40;99.90
22734;DHT22;11534;51.994;5.692;2023-05-07T06:43:57;15.40;99.90
22734;DHT22;11534;51.994;5.692;2023-05-07T06:46:23;15.40;99.90
22734;DHT22;11534;51.994;5.692;2023-05-07T06:48:48;15.40;99.90
22734;DHT22;11534;51.994;5.692;2023-05-07T06:51:14;15.40;99.90
22734;DHT22;11534;51.994;5.692;2023-05-07T06:53:40;15.50;99.90
22734;DHT22;11534;51.994;5.692;2023-05-07T06:56:06;15.50;99.90
22734;DHT22;11534;51.994;5.692;2023-05-07T06:58:32;15.60;99.90
22734;DHT22;11534;51.994;5.692;2023-05-07T07:00:57;15.60;99.90
22734;DHT22;11534;51.994;5.692;2023-05-07T07:03:23;15.60;99.90
22734;DHT22;11534;51.994;5.692;2023-05-07T07:05:52;15.60;99.90
22734;DHT22;11534;51.994;5.692;2023-05-07T07:08:18;15.60;99.90
22734;DHT22;11534;51.994;5.692;2023-05-07T07:10:47;15.70;99.90
22734;DHT22;11534;51.994;5.692;2023-05-07T07:13:13;15.80;99.90
22734;DHT22;11534;51.994;5.692;2023-05-07T07:15:39;15.70;99.90
22734;DHT22;11534;51.994;5.692;2023-05-07T07:18:06;15.80;99.90
22734;DHT22;11534;51.994;5.692;2023-05-07T07:20:31;15.90;99.90
22734;DHT22;11534;51.994;5.692;2023-05-07T07:22:57;15.90;99.90
22734;DHT22;11534;51.994;5.692;2023-05-07T07:25:23;15.90;99.90
22734;DHT22;11534;51.994;5.692;2023-05-07T07:27:49;15.90;99.90
22734;DHT22;11534;51.994;5.692;2023-05-07T07:30:15;15.90;99.90
22734;DHT22;11534;51.994;5.692;2023-05-07T07:32:41;15.90;99.90
22734;DHT22;11534;51.994;5.692;2023-05-07T07:35:07;15.90;99.90
22734;DHT22;11534;51.994;5.692;2023-05-07T07:37:33;15.90;99.90
22734;DHT22;11534;51.994;5.692;2023-05-07T07:39:58;15.90;99.90
22734;DHT22;11534;51.994;5.692;2023-05-07T07:42:24;16.00;99.90
22734;DHT22;11534;51.994;5.692;2023-05-07T07:44:49;16.00;99.90
22734;DHT22;11534;51.994;5.692;2023-05-07T07:47:15;16.10;99.90
22734;DHT22;11534;51.994;5.692;2023-05-07T07:49:41;16.10;99.90
22734;DHT22;11534;51.994;5.692;2023-05-07T07:52:06;16.20;99.90
22734;DHT22;11534;51.994;5.692;2023-05-07T07:54:32;16.20;99.90
22734;DHT22;11534;51.994;5.692;2023-05-07T07:56:58;16.30;99.90
22734;DHT22;11534;51.994;5.692;2023-05-07T07:59:23;16.40;99.90
22734;DHT22;11534;51.994;5.692;2023-05-07T08:01:49;16.40;99.90
22734;DHT22;11534;51.994;5.692;2023-05-07T08:04:17;16.40;99.90
22734;DHT22;11534;51.994;5.692;2023-05-07T08:06:43;16.50;99.90
22734;DHT22;11534;51.994;5.692;2023-05-07T08:09:08;16.50;99.90
22734;DHT22;11534;51.994;5.692;2023-05-07T08:11:34;16.50;99.90
22734;DHT22;11534;51.994;5.692;2023-05-07T08:14:00;16.60;99.90
22734;DHT22;11534;51.994;5.692;2023-05-07T08:16:26;16.60;99.90
22734;DHT22;11534;51.994;5.692;2023-05-07T08:18:52;16.70;99.90
22734;DHT22;11534;51.994;5.692;2023-05-07T08:21:18;16.70;99.90
22734;DHT22;11534;51.994;5.692;2023-05-07T08:23:43;16.80;99.90
22734;DHT22;11534;51.994;5.692;2023-05-07T08:26:09;16.90;99.90
22734;DHT22;11534;51.994;5.692;2023-05-07T08:28:35;16.90;99.90
22734;DHT22;11534;51.994;5.692;2023-05-07T08:31:01;16.90;99.90
22734;DHT22;11534;51.994;5.692;2023-05-07T08:33:27;16.90;99.90
22734;DHT22;11534;51.994;5.692;2023-05-07T08:35:53;17.00;99.90
22734;DHT22;11534;51.994;5.692;2023-05-07T08:38:19;17.00;99.90
22734;DHT22;11534;51.994;5.692;2023-05-07T08:40:45;17.00;99.90
22734;DHT22;11534;51.994;5.692;2023-05-07T08:43:15;16.90;99.90
22734;DHT22;11534;51.994;5.692;2023-05-07T08:45:43;16.90;99.90
22734;DHT22;11534;51.994;5.692;2023-05-07T08:48:22;17.00;99.90
22734;DHT22;11534;51.994;5.692;2023-05-07T08:50:50;17.10;99.90
22734;DHT22;11534;51.994;5.692;2023-05-07T08:53:17;17.20;99.90
22734;DHT22;11534;51.994;5.692;2023-05-07T08:55:43;17.20;99.90
22734;DHT22;11534;51.994;5.692;2023-05-07T08:58:09;17.30;99.90
22734;DHT22;11534;51.994;5.692;2023-05-07T09:00:36;17.40;99.90
22734;DHT22;11534;51.994;5.692;2023-05-07T09:03:02;17.40;99.90
22734;DHT22;11534;51.994;5.692;2023-05-07T09:05:28;17.40;99.90
22734;DHT22;11534;51.994;5.692;2023-05-07T09:07:54;17.50;99.90
22734;DHT22;11534;51.994;5.692;2023-05-07T09:10:21;17.60;99.90
22734;DHT22;11534;51.994;5.692;2023-05-07T09:12:47;17.60;99.90
22734;DHT22;11534;51.994;5.692;2023-05-07T09:15:13;17.70;99.90
22734;DHT22;11534;51.994;5.692;2023-05-07T09:17:38;17.80;99.90
22734;DHT22;11534;51.994;5.692;2023-05-07T09:20:06;17.80;99.90
22734;DHT22;11534;51.994;5.692;2023-05-07T09:22:33;17.90;99.90
22734;DHT22;11534;51.994;5.692;2023-05-07T09:24:59;18.00;99.90
22734;DHT22;11534;51.994;5.692;2023-05-07T09:27:25;18.10;99.90
22734;DHT22;11534;51.994;5.692;2023-05-07T09:29:51;18.30;99.90
22734;DHT22;11534;51.994;5.692;2023-05-07T09:32:17;18.30;99.90
22734;DHT22;11534;51.994;5.692;2023-05-07T09:34:44;18.40;99.90
22734;DHT22;11534;51.994;5.692;2023-05-07T09:37:12;18.40;99.90
22734;DHT22;11534;51.994;5.692;2023-05-07T09:39:46;18.40;99.90
22734;DHT22;11534;51.994;5.692;2023-05-07T09:42:13;18.40;99.90
22734;DHT22;11534;51.994;5.692;2023-05-07T09:44:40;18.40;99.90
22734;DHT22;11534;51.994;5.692;2023-05-07T09:47:07;18.50;99.90
22734;DHT22;11534;51.994;5.692;2023-05-07T09:49:38;18.60;99.90
22734;DHT22;11534;51.994;5.692;2023-05-07T09:52:06;18.60;99.90
22734;DHT22;11534;51.994;5.692;2023-05-07T09:54:35;18.70;99.90
22734;DHT22;11534;51.994;5.692;2023-05-07T09:57:05;18.70;99.90
22734;DHT22;11534;51.994;5.692;2023-05-07T09:59:32;18.80;99.90
22734;DHT22;11534;51.994;5.692;2023-05-07T10:01:59;19.00;99.90
22734;DHT22;11534;51.994;5.692;2023-05-07T10:04:28;19.00;99.90
22734;DHT22;11534;51.994;5.692;2023-05-07T10:06:55;19.00;99.90
22734;DHT22;11534;51.994;5.692;2023-05-07T10:09:21;18.90;99.90
22734;DHT22;11534;51.994;5.692;2023-05-07T10:11:49;19.00;99.90
22734;DHT22;11534;51.994;5.692;2023-05-07T10:14:15;19.00;99.90
22734;DHT22;11534;51.994;5.692;2023-05-07T10:16:41;19.10;99.90
22734;DHT22;11534;51.994;5.692;2023-05-07T10:19:08;19.10;99.90
22734;DHT22;11534;51.994;5.692;2023-05-07T10:21:36;19.20;99.90
22734;DHT22;11534;51.994;5.692;2023-05-07T10:24:10;19.20;99.90
22734;DHT22;11534;51.994;5.692;2023-05-07T10:26:45;19.20;99.90
22734;DHT22;11534;51.994;5.692;2023-05-07T10:29:38;19.10;99.90
22734;DHT22;11534;51.994;5.692;2023-05-07T10:33:01;19.10;99.90
22734;DHT22;11534;51.994;5.692;2023-05-07T10:35:25;19.10;99.90
22734;DHT22;11534;51.994;5.692;2023-05-07T10:37:53;19.30;99.90
22734;DHT22;11534;51.994;5.692;2023-05-07T10:40:20;19.20;99.90
22734;DHT22;11534;51.994;5.692;2023-05-07T10:43:00;19.30;99.90
22734;DHT22;11534;51.994;5.692;2023-05-07T10:45:27;19.40;99.90
22734;DHT22;11534;51.994;5.692;2023-05-07T10:50:36;19.50;99.90
22734;DHT22;11534;51.994;5.692;2023-05-07T10:53:24;19.70;99.90
22734;DHT22;11534;51.994;5.692;2023-05-07T10:58:43;19.80;99.90
22734;DHT22;11534;51.994;5.692;2023-05-07T11:01:09;19.90;99.90
22734;DHT22;11534;51.994;5.692;2023-05-07T11:04:15;19.90;99.90
22734;DHT22;11534;51.994;5.692;2023-05-07T11:06:41;20.20;99.90
22734;DHT22;11534;51.994;5.692;2023-05-07T11:09:06;20.30;99.90
22734;DHT22;11534;51.994;5.692;2023-05-07T11:11:49;20.50;99.90
22734;DHT22;11534;51.994;5.692;2023-05-07T11:17:07;20.80;99.90
22734;DHT22;11534;51.994;5.692;2023-05-07T11:19:53;20.90;99.90
22734;DHT22;11534;51.994;5.692;2023-05-07T11:22:39;21.00;99.90
22734;DHT22;11534;51.994;5.692;2023-05-07T11:25:06;20.80;99.90
22734;DHT22;11534;51.994;5.692;2023-05-07T11:27:32;20.70;99.90
22734;DHT22;11534;51.994;5.692;2023-05-07T11:29:59;20.60;99.90
22734;DHT22;11534;51.994;5.692;2023-05-07T11:32:27;20.40;99.90
22734;DHT22;11534;51.994;5.692;2023-05-07T11:34:55;20.30;99.90
22734;DHT22;11534;51.994;5.692;2023-05-07T11:37:21;20.50;99.90
22734;DHT22;11534;51.994;5.692;2023-05-07T11:39:48;20.60;99.90
22734;DHT22;11534;51.994;5.692;2023-05-07T11:42:32;20.50;99.90
22734;DHT22;11534;51.994;5.692;2023-05-07T11:44:59;20.60;99.90
22734;DHT22;11534;51.994;5.692;2023-05-07T11:47:25;20.80;99.90
22734;DHT22;11534;51.994;5.692;2023-05-07T11:49:54;20.80;99.90
22734;DHT22;11534;51.994;5.692;2023-05-07T11:52:23;20.90;99.90
22734;DHT22;11534;51.994;5.692;2023-05-07T11:54:53;20.90;99.90
22734;DHT22;11534;51.994;5.692;2023-05-07T11:57:21;20.90;99.90
22734;DHT22;11534;51.994;5.692;2023-05-07T11:59:47;20.90;99.90
22734;DHT22;11534;51.994;5.692;2023-05-07T12:02:17;20.80;99.90
22734;DHT22;11534;51.994;5.692;2023-05-07T12:04:44;20.80;99.90
22734;DHT22;11534;51.994;5.692;2023-05-07T12:07:16;20.80;99.90
22734;DHT22;11534;51.994;5.692;2023-05-07T12:09:43;20.70;99.90
22734;DHT22;11534;51.994;5.692;2023-05-07T12:12:09;20.70;99.90
22734;DHT22;11534;51.994;5.692;2023-05-07T12:14:40;20.70;99.90
22734;DHT22;11534;51.994;5.692;2023-05-07T12:17:07;20.70;99.90
22734;DHT22;11534;51.994;5.692;2023-05-07T12:19:34;20.70;99.90
22734;DHT22;11534;51.994;5.692;2023-05-07T12:22:02;20.80;99.90
22734;DHT22;11534;51.994;5.692;2023-05-07T12:24:28;20.90;99.90
22734;DHT22;11534;51.994;5.692;2023-05-07T12:26:53;20.80;99.90
22734;DHT22;11534;51.994;5.692;2023-05-07T12:29:22;20.80;99.90
22734;DHT22;11534;51.994;5.692;2023-05-07T12:31:50;20.90;99.90
22734;DHT22;11534;51.994;5.692;2023-05-07T12:34:15;21.10;99.90
22734;DHT22;11534;51.994;5.692;2023-05-07T12:36:41;21.00;99.90
22734;DHT22;11534;51.994;5.692;2023-05-07T12:39:08;21.20;99.90
22734;DHT22;11534;51.994;5.692;2023-05-07T12:44:21;22.10;99.90
22734;DHT22;11534;51.994;5.692;2023-05-07T12:46:47;22.60;99.90
22734;DHT22;11534;51.994;5.692;2023-05-07T12:49:13;22.90;99.90
22734;DHT22;11534;51.994;5.692;2023-05-07T12:51:39;23.00;99.90
22734;DHT22;11534;51.994;5.692;2023-05-07T12:54:04;22.60;99.90
22734;DHT22;11534;51.994;5.692;2023-05-07T12:56:35;22.60;99.90
22734;DHT22;11534;51.994;5.692;2023-05-07T12:59:01;22.30;99.90
22734;DHT22;11534;51.994;5.692;2023-05-07T13:01:31;22.30;99.90
22734;DHT22;11534;51.994;5.692;2023-05-07T13:04:01;22.40;99.90
22734;DHT22;11534;51.994;5.692;2023-05-07T13:06:28;22.40;99.90
22734;DHT22;11534;51.994;5.692;2023-05-07T13:08:53;22.40;99.90
22734;DHT22;11534;51.994;5.692;2023-05-07T13:11:19;22.00;99.90
22734;DHT22;11534;51.994;5.692;2023-05-07T13:13:46;21.90;99.90
22734;DHT22;11534;51.994;5.692;2023-05-07T13:16:11;21.70;99.90
22734;DHT22;11534;51.994;5.692;2023-05-07T13:18:39;21.80;99.90
22734;DHT22;11534;51.994;5.692;2023-05-07T13:21:05;21.70;99.90
22734;DHT22;11534;51.994;5.692;2023-05-07T13:23:30;21.80;99.90
22734;DHT22;11534;51.994;5.692;2023-05-07T13:25:56;21.80;99.90
22734;DHT22;11534;51.994;5.692;2023-05-07T13:28:23;21.80;99.90
22734;DHT22;11534;51.994;5.692;2023-05-07T13:30:50;21.80;99.90
22734;DHT22;11534;51.994;5.692;2023-05-07T13:33:17;21.80;99.90
22734;DHT22;11534;51.994;5.692;2023-05-07T13:35:43;21.80;99.90
22734;DHT22;11534;51.994;5.692;2023-05-07T13:38:09;21.70;99.90
22734;DHT22;11534;51.994;5.692;2023-05-07T13:40:34;21.60;99.90
22734;DHT22;11534;51.994;5.692;2023-05-07T13:43:00;21.60;99.90
22734;DHT22;11534;51.994;5.692;2023-05-07T13:45:29;21.80;99.90
22734;DHT22;11534;51.994;5.692;2023-05-07T13:47:56;21.90;99.90
22734;DHT22;11534;51.994;5.692;2023-05-07T13:50:22;22.00;99.90
22734;DHT22;11534;51.994;5.692;2023-05-07T13:52:47;22.20;99.90
22734;DHT22;11534;51.994;5.692;2023-05-07T13:55:20;22.20;99.90
22734;DHT22;11534;51.994;5.692;2023-05-07T13:57:47;22.30;99.90
22734;DHT22;11534;51.994;5.692;2023-05-07T14:00:13;22.30;99.90
22734;DHT22;11534;51.994;5.692;2023-05-07T14:02:40;22.40;99.90
22734;DHT22;11534;51.994;5.692;2023-05-07T14:05:06;22.20;99.90
22734;DHT22;11534;51.994;5.692;2023-05-07T14:07:32;22.10;99.90
22734;DHT22;11534;51.994;5.692;2023-05-07T14:09:58;22.20;99.90
22734;DHT22;11534;51.994;5.692;2023-05-07T14:12:24;22.10;99.90
22734;DHT22;11534;51.994;5.692;2023-05-07T14:14:50;22.10;99.90
22734;DHT22;11534;51.994;5.692;2023-05-07T14:17:19;22.10;99.90
22734;DHT22;11534;51.994;5.692;2023-05-07T14:19:45;21.90;99.90
22734;DHT22;11534;51.994;5.692;2023-05-07T14:22:12;21.90;99.90
22734;DHT22;11534;51.994;5.692;2023-05-07T14:24:38;21.80;99.90
22734;DHT22;11534;51.994;5.692;2023-05-07T14:27:05;21.80;99.90
22734;DHT22;11534;51.994;5.692;2023-05-07T14:29:31;21.80;99.90
22734;DHT22;11534;51.994;5.692;2023-05-07T14:31:56;21.90;99.90
22734;DHT22;11534;51.994;5.692;2023-05-07T14:34:22;21.70;99.90
22734;DHT22;11534;51.994;5.692;2023-05-07T14:36:48;21.70;99.90
22734;DHT22;11534;51.994;5.692;2023-05-07T14:39:13;21.80;99.90
22734;DHT22;11534;51.994;5.692;2023-05-07T14:41:39;21.80;99.90
22734;DHT22;11534;51.994;5.692;2023-05-07T14:44:05;21.90;99.90
22734;DHT22;11534;51.994;5.692;2023-05-07T14:46:30;21.90;99.90
22734;DHT22;11534;51.994;5.692;2023-05-07T14:48:57;22.00;99.90
22734;DHT22;11534;51.994;5.692;2023-05-07T14:51:24;22.10;99.90
22734;DHT22;11534;51.994;5.692;2023-05-07T14:53:51;21.90;99.90
22734;DHT22;11534;51.994;5.692;2023-05-07T14:56:17;21.80;99.90
22734;DHT22;11534;51.994;5.692;2023-05-07T14:58:43;21.80;99.90
22734;DHT22;11534;51.994;5.692;2023-05-07T15:01:09;21.80;99.90
22734;DHT22;11534;51.994;5.692;2023-05-07T15:03:35;21.80;99.90
22734;DHT22;11534;51.994;5.692;2023-05-07T15:06:01;21.70;99.90
22734;DHT22;11534;51.994;5.692;2023-05-07T15:08:28;21.60;99.90
22734;DHT22;11534;51.994;5.692;2023-05-07T15:10:54;21.70;99.90
22734;DHT22;11534;51.994;5.692;2023-05-07T15:13:21;21.60;99.90
22734;DHT22;11534;51.994;5.692;2023-05-07T15:15:47;21.70;99.90
22734;DHT22;11534;51.994;5.692;2023-05-07T15:18:13;21.60;99.90
22734;DHT22;11534;51.994;5.692;2023-05-07T15:20:40;21.60;99.90
22734;DHT22;11534;51.994;5.692;2023-05-07T15:23:07;21.40;99.90
22734;DHT22;11534;51.994;5.692;2023-05-07T15:25:35;21.30;99.90
22734;DHT22;11534;51.994;5.692;2023-05-07T15:28:02;21.10;99.90
22734;DHT22;11534;51.994;5.692;2023-05-07T15:30:27;20.80;99.90
22734;DHT22;11534;51.994;5.692;2023-05-07T15:32:53;20.50;99.90
22734;DHT22;11534;51.994;5.692;2023-05-07T15:35:19;20.20;99.90
22734;DHT22;11534;51.994;5.692;2023-05-07T15:37:50;20.00;99.90
22734;DHT22;11534;51.994;5.692;2023-05-07T15:40:18;19.80;99.90